sensor_id;sensor_type;location;lat;lon;timestamp;P1;durP1;ratioP1;P2;durP2;ratioP2
4186;SDS011;2107;52.306;10.484;2022-10-16T00:02:25;0.20;;;0.20;;
4186;SDS011;2107;52.306;10.484;2022-10-16T00:04:52;0.10;;;0.10;;
4186;SDS011;2107;52.306;10.484;2022-10-16T00:07:19;0.10;;;0.10;;
4186;SDS011;2107;52.306;10.484;2022-10-16T00:09:46;0.10;;;0.10;;
4186;SDS011;2107;52.306;10.484;2022-10-16T00:12:13;0.10;;;0.10;;
4186;SDS011;2107;52.306;10.484;2022-10-16T00:14:41;0.10;;;0.10;;
4186;SDS011;2107;52.306;10.484;2022-10-16T00:17:09;0.10;;;0.10;;
4186;SDS011;2107;52.306;10.484;2022-10-16T00:19:35;0.10;;;0.10;;
4186;SDS011;2107;52.306;10.484;2022-10-16T00:22:02;0.10;;;0.10;;
4186;SDS011;2107;52.306;10.484;2022-10-16T00:24:29;0.10;;;0.10;;
4186;SDS011;2107;52.306;10.484;2022-10-16T00:26:56;0.00;;;0.00;;
4186;SDS011;2107;52.306;10.484;2022-10-16T00:29:23;0.00;;;0.00;;
4186;SDS011;2107;52.306;10.484;2022-10-16T00:31:51;0.00;;;0.00;;
4186;SDS011;2107;52.306;10.484;2022-10-16T00:34:18;0.10;;;0.10;;
4186;SDS011;2107;52.306;10.484;2022-10-16T00:36:45;0.00;;;0.00;;
4186;SDS011;2107;52.306;10.484;2022-10-16T00:39:12;0.10;;;0.10;;
4186;SDS011;2107;52.306;10.484;2022-10-16T00:41:39;0.00;;;0.00;;
4186;SDS011;2107;52.306;10.484;2022-10-16T00:47:08;0.00;;;0.00;;
4186;SDS011;2107;52.306;10.484;2022-10-16T00:49:37;0.00;;;0.00;;
4186;SDS011;2107;52.306;10.484;2022-10-16T00:52:04;0.00;;;0.00;;
4186;SDS011;2107;52.306;10.484;2022-10-16T00:54:32;0.00;;;0.00;;
4186;SDS011;2107;52.306;10.484;2022-10-16T00:57:01;0.00;;;0.00;;
4186;SDS011;2107;52.306;10.484;2022-10-16T00:59:31;0.00;;;0.00;;
4186;SDS011;2107;52.306;10.484;2022-10-16T01:02:00;0.00;;;0.00;;
4186;SDS011;2107;52.306;10.484;2022-10-16T01:04:29;0.00;;;0.00;;
4186;SDS011;2107;52.306;10.484;2022-10-16T01:07:02;0.00;;;0.00;;
4186;SDS011;2107;52.306;10.484;2022-10-16T01:09:37;0.00;;;0.00;;
4186;SDS011;2107;52.306;10.484;2022-10-16T01:12:19;0.00;;;0.00;;
4186;SDS011;2107;52.306;10.484;2022-10-16T01:14:53;0.00;;;0.00;;
4186;SDS011;2107;52.306;10.484;2022-10-16T01:17:23;0.00;;;0.00;;
4186;SDS011;2107;52.306;10.484;2022-10-16T01:20:02;0.00;;;0.00;;
4186;SDS011;2107;52.306;10.484;2022-10-16T01:22:40;0.00;;;0.00;;
4186;SDS011;2107;52.306;10.484;2022-10-16T01:25:16;0.00;;;0.00;;
4186;SDS011;2107;52.306;10.484;2022-10-16T01:27:49;0.00;;;0.00;;
4186;SDS011;2107;52.306;10.484;2022-10-16T01:30:18;0.00;;;0.00;;
4186;SDS011;2107;52.306;10.484;2022-10-16T01:32:49;0.10;;;0.10;;
4186;SDS011;2107;52.306;10.484;2022-10-16T01:35:22;0.10;;;0.10;;
4186;SDS011;2107;52.306;10.484;2022-10-16T01:37:53;0.00;;;0.00;;
4186;SDS011;2107;52.306;10.484;2022-10-16T01:40:25;0.00;;;0.00;;
4186;SDS011;2107;52.306;10.484;2022-10-16T01:42:55;0.00;;;0.00;;
4186;SDS011;2107;52.306;10.484;2022-10-16T01:45:26;0.10;;;0.10;;
4186;SDS011;2107;52.306;10.484;2022-10-16T01:47:56;0.10;;;0.10;;
4186;SDS011;2107;52.306;10.484;2022-10-16T01:50:29;0.10;;;0.10;;
4186;SDS011;2107;52.306;10.484;2022-10-16T01:52:59;0.00;;;0.00;;
4186;SDS011;2107;52.306;10.484;2022-10-16T01:55:28;0.10;;;0.10;;
4186;SDS011;2107;52.306;10.484;2022-10-16T01:57:59;0.00;;;0.00;;
4186;SDS011;2107;52.306;10.484;2022-10-16T02:00:30;0.10;;;0.10;;
4186;SDS011;2107;52.306;10.484;2022-10-16T02:02:57;0.10;;;0.10;;
4186;SDS011;2107;52.306;10.484;2022-10-16T02:05:28;0.10;;;0.10;;
4186;SDS011;2107;52.306;10.484;2022-10-16T02:07:59;0.10;;;0.10;;
4186;SDS011;2107;52.306;10.484;2022-10-16T02:10:26;0.10;;;0.10;;
4186;SDS011;2107;52.306;10.484;2022-10-16T02:12:56;0.10;;;0.10;;
4186;SDS011;2107;52.306;10.484;2022-10-16T02:15:26;0.10;;;0.10;;
4186;SDS011;2107;52.306;10.484;2022-10-16T02:17:53;0.10;;;0.10;;
4186;SDS011;2107;52.306;10.484;2022-10-16T02:20:21;0.00;;;0.00;;
4186;SDS011;2107;52.306;10.484;2022-10-16T02:22:51;0.00;;;0.00;;
4186;SDS011;2107;52.306;10.484;2022-10-16T02:25:22;0.10;;;0.10;;
4186;SDS011;2107;52.306;10.484;2022-10-16T02:27:53;0.10;;;0.10;;
4186;SDS011;2107;52.306;10.484;2022-10-16T02:30:25;0.00;;;0.00;;
4186;SDS011;2107;52.306;10.484;2022-10-16T02:32:59;0.10;;;0.10;;
4186;SDS011;2107;52.306;10.484;2022-10-16T02:35:28;0.00;;;0.00;;
4186;SDS011;2107;52.306;10.484;2022-10-16T02:37:56;0.00;;;0.00;;
4186;SDS011;2107;52.306;10.484;2022-10-16T02:40:24;0.00;;;0.00;;
4186;SDS011;2107;52.306;10.484;2022-10-16T02:42:52;0.00;;;0.00;;
4186;SDS011;2107;52.306;10.484;2022-10-16T02:45:20;0.10;;;0.10;;
4186;SDS011;2107;52.306;10.484;2022-10-16T02:47:49;0.10;;;0.10;;
4186;SDS011;2107;52.306;10.484;2022-10-16T02:50:16;0.10;;;0.10;;
4186;SDS011;2107;52.306;10.484;2022-10-16T02:52:43;0.10;;;0.10;;
4186;SDS011;2107;52.306;10.484;2022-10-16T02:55:10;0.10;;;0.10;;
4186;SDS011;2107;52.306;10.484;2022-10-16T02:57:36;0.10;;;0.10;;
4186;SDS011;2107;52.306;10.484;2022-10-16T03:00:05;0.00;;;0.00;;
4186;SDS011;2107;52.306;10.484;2022-10-16T03:02:33;0.00;;;0.00;;
4186;SDS011;2107;52.306;10.484;2022-10-16T03:05:02;0.00;;;0.00;;
4186;SDS011;2107;52.306;10.484;2022-10-16T03:07:29;0.10;;;0.10;;
4186;SDS011;2107;52.306;10.484;2022-10-16T03:09:55;0.00;;;0.00;;
4186;SDS011;2107;52.306;10.484;2022-10-16T03:12:25;0.00;;;0.00;;
4186;SDS011;2107;52.306;10.484;2022-10-16T03:14:52;0.00;;;0.00;;
4186;SDS011;2107;52.306;10.484;2022-10-16T03:17:19;0.00;;;0.00;;
4186;SDS011;2107;52.306;10.484;2022-10-16T03:19:45;0.00;;;0.00;;
4186;SDS011;2107;52.306;10.484;2022-10-16T03:22:14;0.00;;;0.00;;
4186;SDS011;2107;52.306;10.484;2022-10-16T03:24:41;0.00;;;0.00;;
4186;SDS011;2107;52.306;10.484;2022-10-16T03:27:07;0.00;;;0.00;;
4186;SDS011;2107;52.306;10.484;2022-10-16T03:29:34;0.00;;;0.00;;
4186;SDS011;2107;52.306;10.484;2022-10-16T03:32:01;0.00;;;0.00;;
4186;SDS011;2107;52.306;10.484;2022-10-16T03:34:28;0.00;;;0.00;;
4186;SDS011;2107;52.306;10.484;2022-10-16T03:36:55;0.00;;;0.00;;
4186;SDS011;2107;52.306;10.484;2022-10-16T03:39:24;0.00;;;0.00;;
4186;SDS011;2107;52.306;10.484;2022-10-16T03:41:51;0.00;;;0.00;;
4186;SDS011;2107;52.306;10.484;2022-10-16T03:44:17;0.00;;;0.00;;
4186;SDS011;2107;52.306;10.484;2022-10-16T03:46:44;0.00;;;0.00;;
4186;SDS011;2107;52.306;10.484;2022-10-16T03:49:11;0.00;;;0.00;;
4186;SDS011;2107;52.306;10.484;2022-10-16T03:51:38;0.00;;;0.00;;
4186;SDS011;2107;52.306;10.484;2022-10-16T03:54:05;0.00;;;0.00;;
4186;SDS011;2107;52.306;10.484;2022-10-16T03:56:33;0.00;;;0.00;;
4186;SDS011;2107;52.306;10.484;2022-10-16T03:59:00;0.00;;;0.00;;
4186;SDS011;2107;52.306;10.484;2022-10-16T04:01:27;0.00;;;0.00;;
4186;SDS011;2107;52.306;10.484;2022-10-16T04:03:54;0.00;;;0.00;;
4186;SDS011;2107;52.306;10.484;2022-10-16T04:06:21;0.00;;;0.00;;
4186;SDS011;2107;52.306;10.484;2022-10-16T04:08:48;0.00;;;0.00;;
4186;SDS011;2107;52.306;10.484;2022-10-16T04:11:15;0.00;;;0.00;;
4186;SDS011;2107;52.306;10.484;2022-10-16T04:13:43;0.00;;;0.00;;
4186;SDS011;2107;52.306;10.484;2022-10-16T04:16:10;0.00;;;0.00;;
4186;SDS011;2107;52.306;10.484;2022-10-16T04:18:37;0.00;;;0.00;;
4186;SDS011;2107;52.306;10.484;2022-10-16T04:21:04;0.00;;;0.00;;
4186;SDS011;2107;52.306;10.484;2022-10-16T04:23:32;0.00;;;0.00;;
4186;SDS011;2107;52.306;10.484;2022-10-16T04:25:59;0.00;;;0.00;;
4186;SDS011;2107;52.306;10.484;2022-10-16T04:28:26;0.00;;;0.00;;
4186;SDS011;2107;52.306;10.484;2022-10-16T04:30:55;0.00;;;0.00;;
4186;SDS011;2107;52.306;10.484;2022-10-16T04:33:22;0.00;;;0.00;;
4186;SDS011;2107;52.306;10.484;2022-10-16T04:35:55;0.00;;;0.00;;
4186;SDS011;2107;52.306;10.484;2022-10-16T04:38:22;0.00;;;0.00;;
4186;SDS011;2107;52.306;10.484;2022-10-16T04:40:49;0.00;;;0.00;;
4186;SDS011;2107;52.306;10.484;2022-10-16T04:43:16;0.00;;;0.00;;
4186;SDS011;2107;52.306;10.484;2022-10-16T04:45:43;0.00;;;0.00;;
4186;SDS011;2107;52.306;10.484;2022-10-16T04:48:11;0.00;;;0.00;;
4186;SDS011;2107;52.306;10.484;2022-10-16T04:50:38;0.00;;;0.00;;
4186;SDS011;2107;52.306;10.484;2022-10-16T04:53:05;0.00;;;0.00;;
4186;SDS011;2107;52.306;10.484;2022-10-16T04:55:32;0.00;;;0.00;;
4186;SDS011;2107;52.306;10.484;2022-10-16T04:57:59;0.00;;;0.00;;
4186;SDS011;2107;52.306;10.484;2022-10-16T05:00:26;0.00;;;0.00;;
4186;SDS011;2107;52.306;10.484;2022-10-16T05:02:53;0.00;;;0.00;;
4186;SDS011;2107;52.306;10.484;2022-10-16T05:05:21;0.00;;;0.00;;
4186;SDS011;2107;52.306;10.484;2022-10-16T05:07:48;0.00;;;0.00;;
4186;SDS011;2107;52.306;10.484;2022-10-16T05:10:15;0.00;;;0.00;;
4186;SDS011;2107;52.306;10.484;2022-10-16T05:12:42;0.00;;;0.00;;
4186;SDS011;2107;52.306;10.484;2022-10-16T05:15:09;0.00;;;0.00;;
4186;SDS011;2107;52.306;10.484;2022-10-16T05:17:37;0.00;;;0.00;;
4186;SDS011;2107;52.306;10.484;2022-10-16T05:20:04;0.00;;;0.00;;
4186;SDS011;2107;52.306;10.484;2022-10-16T05:22:33;0.00;;;0.00;;
4186;SDS011;2107;52.306;10.484;2022-10-16T05:25:00;0.00;;;0.00;;
4186;SDS011;2107;52.306;10.484;2022-10-16T05:27:27;0.00;;;0.00;;
4186;SDS011;2107;52.306;10.484;2022-10-16T05:29:54;0.00;;;0.00;;
4186;SDS011;2107;52.306;10.484;2022-10-16T05:32:20;0.00;;;0.00;;
4186;SDS011;2107;52.306;10.484;2022-10-16T05:34:47;0.00;;;0.00;;
4186;SDS011;2107;52.306;10.484;2022-10-16T05:37:14;0.00;;;0.00;;
4186;SDS011;2107;52.306;10.484;2022-10-16T05:39:42;0.00;;;0.00;;
4186;SDS011;2107;52.306;10.484;2022-10-16T05:42:09;0.00;;;0.00;;
4186;SDS011;2107;52.306;10.484;2022-10-16T05:44:36;0.00;;;0.00;;
4186;SDS011;2107;52.306;10.484;2022-10-16T05:47:03;0.00;;;0.00;;
4186;SDS011;2107;52.306;10.484;2022-10-16T05:49:30;0.00;;;0.00;;
4186;SDS011;2107;52.306;10.484;2022-10-16T05:51:57;0.00;;;0.00;;
4186;SDS011;2107;52.306;10.484;2022-10-16T05:54:24;0.00;;;0.00;;
4186;SDS011;2107;52.306;10.484;2022-10-16T05:56:52;0.00;;;0.00;;
4186;SDS011;2107;52.306;10.484;2022-10-16T05:59:19;0.00;;;0.00;;
4186;SDS011;2107;52.306;10.484;2022-10-16T06:01:46;0.00;;;0.00;;
4186;SDS011;2107;52.306;10.484;2022-10-16T06:04:12;0.00;;;0.00;;
4186;SDS011;2107;52.306;10.484;2022-10-16T06:06:39;0.00;;;0.00;;
4186;SDS011;2107;52.306;10.484;2022-10-16T06:09:06;0.00;;;0.00;;
4186;SDS011;2107;52.306;10.484;2022-10-16T06:11:33;0.00;;;0.00;;
4186;SDS011;2107;52.306;10.484;2022-10-16T06:14:01;0.00;;;0.00;;
4186;SDS011;2107;52.306;10.484;2022-10-16T06:16:31;0.00;;;0.00;;
4186;SDS011;2107;52.306;10.484;2022-10-16T06:18:59;0.00;;;0.00;;
4186;SDS011;2107;52.306;10.484;2022-10-16T06:21:26;0.00;;;0.00;;
4186;SDS011;2107;52.306;10.484;2022-10-16T06:23:56;0.00;;;0.00;;
4186;SDS011;2107;52.306;10.484;2022-10-16T06:26:24;0.00;;;0.00;;
4186;SDS011;2107;52.306;10.484;2022-10-16T06:28:53;0.00;;;0.00;;
4186;SDS011;2107;52.306;10.484;2022-10-16T06:31:22;0.00;;;0.00;;
4186;SDS011;2107;52.306;10.484;2022-10-16T06:33:52;0.00;;;0.00;;
4186;SDS011;2107;52.306;10.484;2022-10-16T06:36:20;0.00;;;0.00;;
4186;SDS011;2107;52.306;10.484;2022-10-16T06:38:47;0.00;;;0.00;;
4186;SDS011;2107;52.306;10.484;2022-10-16T06:41:15;0.00;;;0.00;;
4186;SDS011;2107;52.306;10.484;2022-10-16T06:43:44;0.00;;;0.00;;
4186;SDS011;2107;52.306;10.484;2022-10-16T06:46:12;0.00;;;0.00;;
4186;SDS011;2107;52.306;10.484;2022-10-16T06:48:41;0.00;;;0.00;;
4186;SDS011;2107;52.306;10.484;2022-10-16T06:51:09;0.00;;;0.00;;
4186;SDS011;2107;52.306;10.484;2022-10-16T06:53:38;0.00;;;0.00;;
4186;SDS011;2107;52.306;10.484;2022-10-16T06:56:07;0.00;;;0.00;;
4186;SDS011;2107;52.306;10.484;2022-10-16T06:58:34;0.07;;;0.07;;
4186;SDS011;2107;52.306;10.484;2022-10-16T07:01:01;0.10;;;0.10;;
4186;SDS011;2107;52.306;10.484;2022-10-16T07:03:29;0.10;;;0.10;;
4186;SDS011;2107;52.306;10.484;2022-10-16T07:06:00;0.10;;;0.10;;
4186;SDS011;2107;52.306;10.484;2022-10-16T07:08:30;0.10;;;0.10;;
4186;SDS011;2107;52.306;10.484;2022-10-16T07:10:58;0.10;;;0.10;;
4186;SDS011;2107;52.306;10.484;2022-10-16T07:13:26;0.10;;;0.10;;
4186;SDS011;2107;52.306;10.484;2022-10-16T07:15:53;0.20;;;0.20;;
4186;SDS011;2107;52.306;10.484;2022-10-16T07:18:20;0.10;;;0.10;;
4186;SDS011;2107;52.306;10.484;2022-10-16T07:20:51;0.10;;;0.10;;
4186;SDS011;2107;52.306;10.484;2022-10-16T07:23:20;0.10;;;0.10;;
4186;SDS011;2107;52.306;10.484;2022-10-16T07:25:52;0.10;;;0.10;;
4186;SDS011;2107;52.306;10.484;2022-10-16T07:28:20;0.10;;;0.10;;
4186;SDS011;2107;52.306;10.484;2022-10-16T07:30:47;0.20;;;0.20;;
4186;SDS011;2107;52.306;10.484;2022-10-16T07:33:14;0.20;;;0.20;;
4186;SDS011;2107;52.306;10.484;2022-10-16T07:35:47;0.20;;;0.20;;
4186;SDS011;2107;52.306;10.484;2022-10-16T07:38:14;0.20;;;0.20;;
4186;SDS011;2107;52.306;10.484;2022-10-16T07:40:43;0.20;;;0.20;;
4186;SDS011;2107;52.306;10.484;2022-10-16T07:43:10;0.20;;;0.20;;
4186;SDS011;2107;52.306;10.484;2022-10-16T07:45:37;0.20;;;0.20;;
4186;SDS011;2107;52.306;10.484;2022-10-16T07:48:12;0.20;;;0.20;;
4186;SDS011;2107;52.306;10.484;2022-10-16T07:50:39;0.20;;;0.20;;
4186;SDS011;2107;52.306;10.484;2022-10-16T07:53:06;0.20;;;0.20;;
4186;SDS011;2107;52.306;10.484;2022-10-16T07:55:33;0.20;;;0.20;;
4186;SDS011;2107;52.306;10.484;2022-10-16T07:58:02;0.20;;;0.20;;
4186;SDS011;2107;52.306;10.484;2022-10-16T08:00:29;0.20;;;0.20;;
4186;SDS011;2107;52.306;10.484;2022-10-16T08:02:56;0.20;;;0.20;;
4186;SDS011;2107;52.306;10.484;2022-10-16T08:05:25;0.20;;;0.20;;
4186;SDS011;2107;52.306;10.484;2022-10-16T08:07:52;0.20;;;0.20;;
4186;SDS011;2107;52.306;10.484;2022-10-16T08:10:20;0.20;;;0.20;;
4186;SDS011;2107;52.306;10.484;2022-10-16T08:12:48;0.20;;;0.20;;
4186;SDS011;2107;52.306;10.484;2022-10-16T08:15:16;0.20;;;0.20;;
4186;SDS011;2107;52.306;10.484;2022-10-16T08:17:43;0.20;;;0.20;;
4186;SDS011;2107;52.306;10.484;2022-10-16T08:20:11;0.20;;;0.20;;
4186;SDS011;2107;52.306;10.484;2022-10-16T08:22:38;0.20;;;0.20;;
4186;SDS011;2107;52.306;10.484;2022-10-16T08:25:05;0.20;;;0.20;;
4186;SDS011;2107;52.306;10.484;2022-10-16T08:27:32;0.20;;;0.20;;
4186;SDS011;2107;52.306;10.484;2022-10-16T08:29:59;0.20;;;0.20;;
4186;SDS011;2107;52.306;10.484;2022-10-16T08:32:27;0.20;;;0.20;;
4186;SDS011;2107;52.306;10.484;2022-10-16T08:34:54;0.20;;;0.20;;
4186;SDS011;2107;52.306;10.484;2022-10-16T08:37:21;0.20;;;0.20;;
4186;SDS011;2107;52.306;10.484;2022-10-16T08:39:48;0.20;;;0.20;;
4186;SDS011;2107;52.306;10.484;2022-10-16T08:42:21;0.20;;;0.20;;
4186;SDS011;2107;52.306;10.484;2022-10-16T08:47:53;0.20;;;0.20;;
4186;SDS011;2107;52.306;10.484;2022-10-16T08:50:27;0.20;;;0.20;;
4186;SDS011;2107;52.306;10.484;2022-10-16T08:52:55;0.30;;;0.30;;
4186;SDS011;2107;52.306;10.484;2022-10-16T08:55:33;0.20;;;0.20;;
4186;SDS011;2107;52.306;10.484;2022-10-16T08:58:10;0.20;;;0.20;;
4186;SDS011;2107;52.306;10.484;2022-10-16T09:00:39;0.10;;;0.10;;
4186;SDS011;2107;52.306;10.484;2022-10-16T09:03:10;0.20;;;0.20;;
4186;SDS011;2107;52.306;10.484;2022-10-16T09:05:54;0.20;;;0.20;;
4186;SDS011;2107;52.306;10.484;2022-10-16T09:08:35;0.20;;;0.20;;
4186;SDS011;2107;52.306;10.484;2022-10-16T09:11:10;0.20;;;0.20;;
4186;SDS011;2107;52.306;10.484;2022-10-16T09:13:43;0.20;;;0.20;;
4186;SDS011;2107;52.306;10.484;2022-10-16T09:16:18;0.20;;;0.20;;
4186;SDS011;2107;52.306;10.484;2022-10-16T09:18:52;0.20;;;0.20;;
4186;SDS011;2107;52.306;10.484;2022-10-16T09:21:26;0.20;;;0.20;;
4186;SDS011;2107;52.306;10.484;2022-10-16T09:23:57;0.30;;;0.30;;
4186;SDS011;2107;52.306;10.484;2022-10-16T09:26:27;0.30;;;0.30;;
4186;SDS011;2107;52.306;10.484;2022-10-16T09:28:54;0.30;;;0.30;;
4186;SDS011;2107;52.306;10.484;2022-10-16T09:31:21;0.20;;;0.20;;
4186;SDS011;2107;52.306;10.484;2022-10-16T09:33:50;0.20;;;0.20;;
4186;SDS011;2107;52.306;10.484;2022-10-16T09:36:21;0.20;;;0.20;;
4186;SDS011;2107;52.306;10.484;2022-10-16T09:39:01;0.30;;;0.30;;
4186;SDS011;2107;52.306;10.484;2022-10-16T09:41:29;0.30;;;0.30;;
4186;SDS011;2107;52.306;10.484;2022-10-16T09:43:57;0.30;;;0.30;;
4186;SDS011;2107;52.306;10.484;2022-10-16T09:46:27;0.30;;;0.30;;
4186;SDS011;2107;52.306;10.484;2022-10-16T09:48:58;0.30;;;0.30;;
4186;SDS011;2107;52.306;10.484;2022-10-16T09:51:27;0.30;;;0.30;;
4186;SDS011;2107;52.306;10.484;2022-10-16T09:53:56;0.30;;;0.30;;
4186;SDS011;2107;52.306;10.484;2022-10-16T09:56:25;0.30;;;0.30;;
4186;SDS011;2107;52.306;10.484;2022-10-16T09:58:54;0.33;;;0.33;;
4186;SDS011;2107;52.306;10.484;2022-10-16T10:01:22;0.30;;;0.30;;
4186;SDS011;2107;52.306;10.484;2022-10-16T10:03:56;0.30;;;0.30;;
4186;SDS011;2107;52.306;10.484;2022-10-16T10:06:28;0.23;;;0.23;;
4186;SDS011;2107;52.306;10.484;2022-10-16T10:08:58;0.30;;;0.30;;
4186;SDS011;2107;52.306;10.484;2022-10-16T10:11:40;0.30;;;0.30;;
4186;SDS011;2107;52.306;10.484;2022-10-16T10:14:15;0.30;;;0.30;;
4186;SDS011;2107;52.306;10.484;2022-10-16T10:16:48;0.30;;;0.30;;
4186;SDS011;2107;52.306;10.484;2022-10-16T10:19:18;0.30;;;0.30;;
4186;SDS011;2107;52.306;10.484;2022-10-16T10:21:46;0.30;;;0.30;;
4186;SDS011;2107;52.306;10.484;2022-10-16T10:24:15;0.30;;;0.30;;
4186;SDS011;2107;52.306;10.484;2022-10-16T10:26:47;0.30;;;0.30;;
4186;SDS011;2107;52.306;10.484;2022-10-16T10:29:24;0.30;;;0.30;;
4186;SDS011;2107;52.306;10.484;2022-10-16T10:32:02;0.30;;;0.30;;
4186;SDS011;2107;52.306;10.484;2022-10-16T10:34:45;0.30;;;0.30;;
4186;SDS011;2107;52.306;10.484;2022-10-16T10:37:32;0.30;;;0.30;;
4186;SDS011;2107;52.306;10.484;2022-10-16T10:40:09;0.30;;;0.30;;
4186;SDS011;2107;52.306;10.484;2022-10-16T10:42:44;0.30;;;0.30;;
4186;SDS011;2107;52.306;10.484;2022-10-16T10:45:18;0.20;;;0.20;;
4186;SDS011;2107;52.306;10.484;2022-10-16T10:48:01;0.20;;;0.20;;
4186;SDS011;2107;52.306;10.484;2022-10-16T10:50:45;0.30;;;0.30;;
4186;SDS011;2107;52.306;10.484;2022-10-16T10:53:23;0.30;;;0.30;;
4186;SDS011;2107;52.306;10.484;2022-10-16T10:56:00;0.20;;;0.20;;
4186;SDS011;2107;52.306;10.484;2022-10-16T11:01:41;0.20;;;0.20;;
4186;SDS011;2107;52.306;10.484;2022-10-16T11:04:20;0.20;;;0.20;;
4186;SDS011;2107;52.306;10.484;2022-10-16T11:07:07;0.20;;;0.20;;
4186;SDS011;2107;52.306;10.484;2022-10-16T11:09:42;0.20;;;0.20;;
4186;SDS011;2107;52.306;10.484;2022-10-16T11:12:13;0.20;;;0.20;;
4186;SDS011;2107;52.306;10.484;2022-10-16T11:14:46;0.20;;;0.20;;
4186;SDS011;2107;52.306;10.484;2022-10-16T11:17:19;0.20;;;0.20;;
4186;SDS011;2107;52.306;10.484;2022-10-16T11:19:52;0.20;;;0.20;;
4186;SDS011;2107;52.306;10.484;2022-10-16T11:22:25;0.20;;;0.20;;
4186;SDS011;2107;52.306;10.484;2022-10-16T11:24:59;0.20;;;0.20;;
4186;SDS011;2107;52.306;10.484;2022-10-16T11:27:34;0.30;;;0.30;;
4186;SDS011;2107;52.306;10.484;2022-10-16T11:30:06;0.20;;;0.20;;
4186;SDS011;2107;52.306;10.484;2022-10-16T11:32:45;0.20;;;0.20;;
4186;SDS011;2107;52.306;10.484;2022-10-16T11:35:21;0.20;;;0.20;;
4186;SDS011;2107;52.306;10.484;2022-10-16T11:37:56;0.20;;;0.20;;
4186;SDS011;2107;52.306;10.484;2022-10-16T11:40:28;0.20;;;0.20;;
4186;SDS011;2107;52.306;10.484;2022-10-16T11:42:59;0.37;;;0.37;;
4186;SDS011;2107;52.306;10.484;2022-10-16T11:45:32;0.30;;;0.30;;
4186;SDS011;2107;52.306;10.484;2022-10-16T11:48:04;0.30;;;0.30;;
4186;SDS011;2107;52.306;10.484;2022-10-16T11:50:39;0.20;;;0.20;;
4186;SDS011;2107;52.306;10.484;2022-10-16T11:53:16;0.30;;;0.30;;
4186;SDS011;2107;52.306;10.484;2022-10-16T11:55:49;0.20;;;0.20;;
4186;SDS011;2107;52.306;10.484;2022-10-16T11:58:20;0.20;;;0.20;;
4186;SDS011;2107;52.306;10.484;2022-10-16T12:00:53;0.20;;;0.20;;
4186;SDS011;2107;52.306;10.484;2022-10-16T12:03:27;0.20;;;0.20;;
4186;SDS011;2107;52.306;10.484;2022-10-16T12:06:03;0.20;;;0.20;;
4186;SDS011;2107;52.306;10.484;2022-10-16T12:08:39;0.20;;;0.20;;
4186;SDS011;2107;52.306;10.484;2022-10-16T12:11:07;0.20;;;0.20;;
4186;SDS011;2107;52.306;10.484;2022-10-16T12:13:36;0.20;;;0.20;;
4186;SDS011;2107;52.306;10.484;2022-10-16T12:16:21;0.20;;;0.20;;
4186;SDS011;2107;52.306;10.484;2022-10-16T12:18:49;0.30;;;0.30;;
4186;SDS011;2107;52.306;10.484;2022-10-16T12:21:30;0.30;;;0.30;;
4186;SDS011;2107;52.306;10.484;2022-10-16T12:24:02;0.30;;;0.30;;
4186;SDS011;2107;52.306;10.484;2022-10-16T12:26:31;0.30;;;0.30;;
4186;SDS011;2107;52.306;10.484;2022-10-16T12:29:09;0.40;;;0.40;;
4186;SDS011;2107;52.306;10.484;2022-10-16T12:31:43;0.37;;;0.37;;
4186;SDS011;2107;52.306;10.484;2022-10-16T12:34:14;0.33;;;0.33;;
4186;SDS011;2107;52.306;10.484;2022-10-16T12:36:48;0.40;;;0.40;;
4186;SDS011;2107;52.306;10.484;2022-10-16T12:39:21;0.30;;;0.30;;
4186;SDS011;2107;52.306;10.484;2022-10-16T12:42:00;0.40;;;0.40;;
4186;SDS011;2107;52.306;10.484;2022-10-16T12:44:31;0.20;;;0.20;;
4186;SDS011;2107;52.306;10.484;2022-10-16T12:47:00;0.30;;;0.30;;
4186;SDS011;2107;52.306;10.484;2022-10-16T12:49:31;0.40;;;0.40;;
4186;SDS011;2107;52.306;10.484;2022-10-16T12:52:02;0.40;;;0.40;;
4186;SDS011;2107;52.306;10.484;2022-10-16T12:54:34;0.40;;;0.40;;
4186;SDS011;2107;52.306;10.484;2022-10-16T12:57:06;0.40;;;0.40;;
4186;SDS011;2107;52.306;10.484;2022-10-16T12:59:53;0.30;;;0.30;;
4186;SDS011;2107;52.306;10.484;2022-10-16T13:02:48;0.30;;;0.30;;
4186;SDS011;2107;52.306;10.484;2022-10-16T13:05:38;0.40;;;0.40;;
4186;SDS011;2107;52.306;10.484;2022-10-16T13:08:16;0.50;;;0.50;;
4186;SDS011;2107;52.306;10.484;2022-10-16T13:10:59;0.40;;;0.40;;
4186;SDS011;2107;52.306;10.484;2022-10-16T13:13:38;0.40;;;0.40;;
4186;SDS011;2107;52.306;10.484;2022-10-16T13:16:21;0.50;;;0.50;;
4186;SDS011;2107;52.306;10.484;2022-10-16T13:18:55;0.30;;;0.30;;
4186;SDS011;2107;52.306;10.484;2022-10-16T13:21:34;0.30;;;0.30;;
4186;SDS011;2107;52.306;10.484;2022-10-16T13:24:12;0.40;;;0.40;;
4186;SDS011;2107;52.306;10.484;2022-10-16T13:26:52;0.30;;;0.30;;
4186;SDS011;2107;52.306;10.484;2022-10-16T13:29:24;0.30;;;0.30;;
4186;SDS011;2107;52.306;10.484;2022-10-16T13:31:57;0.30;;;0.30;;
4186;SDS011;2107;52.306;10.484;2022-10-16T13:34:25;0.30;;;0.30;;
4186;SDS011;2107;52.306;10.484;2022-10-16T13:36:53;0.43;;;0.43;;
4186;SDS011;2107;52.306;10.484;2022-10-16T13:39:21;0.30;;;0.30;;
4186;SDS011;2107;52.306;10.484;2022-10-16T13:42:02;0.37;;;0.37;;
4186;SDS011;2107;52.306;10.484;2022-10-16T13:44:34;0.30;;;0.30;;
4186;SDS011;2107;52.306;10.484;2022-10-16T13:47:05;0.30;;;0.30;;
4186;SDS011;2107;52.306;10.484;2022-10-16T13:49:41;0.30;;;0.30;;
4186;SDS011;2107;52.306;10.484;2022-10-16T13:52:15;0.30;;;0.30;;
4186;SDS011;2107;52.306;10.484;2022-10-16T13:54:44;0.30;;;0.30;;
4186;SDS011;2107;52.306;10.484;2022-10-16T13:57:13;0.30;;;0.30;;
4186;SDS011;2107;52.306;10.484;2022-10-16T13:59:41;0.30;;;0.30;;
4186;SDS011;2107;52.306;10.484;2022-10-16T14:02:10;0.40;;;0.40;;
4186;SDS011;2107;52.306;10.484;2022-10-16T14:04:45;0.30;;;0.30;;
4186;SDS011;2107;52.306;10.484;2022-10-16T14:07:13;0.30;;;0.30;;
4186;SDS011;2107;52.306;10.484;2022-10-16T14:09:47;0.50;;;0.50;;
4186;SDS011;2107;52.306;10.484;2022-10-16T14:12:16;0.30;;;0.30;;
4186;SDS011;2107;52.306;10.484;2022-10-16T14:14:44;0.40;;;0.40;;
4186;SDS011;2107;52.306;10.484;2022-10-16T14:17:13;0.30;;;0.30;;
4186;SDS011;2107;52.306;10.484;2022-10-16T14:19:45;0.30;;;0.30;;
4186;SDS011;2107;52.306;10.484;2022-10-16T14:22:20;0.30;;;0.30;;
4186;SDS011;2107;52.306;10.484;2022-10-16T14:24:54;0.30;;;0.30;;
4186;SDS011;2107;52.306;10.484;2022-10-16T14:27:24;0.30;;;0.30;;
4186;SDS011;2107;52.306;10.484;2022-10-16T14:30:05;0.30;;;0.30;;
4186;SDS011;2107;52.306;10.484;2022-10-16T14:32:39;0.20;;;0.20;;
4186;SDS011;2107;52.306;10.484;2022-10-16T14:35:11;0.30;;;0.30;;
4186;SDS011;2107;52.306;10.484;2022-10-16T14:37:51;0.50;;;0.50;;
4186;SDS011;2107;52.306;10.484;2022-10-16T14:40:18;0.50;;;0.50;;
4186;SDS011;2107;52.306;10.484;2022-10-16T14:42:48;0.40;;;0.40;;
4186;SDS011;2107;52.306;10.484;2022-10-16T14:45:15;0.40;;;0.40;;
4186;SDS011;2107;52.306;10.484;2022-10-16T14:47:47;0.40;;;0.40;;
4186;SDS011;2107;52.306;10.484;2022-10-16T14:50:16;0.30;;;0.30;;
4186;SDS011;2107;52.306;10.484;2022-10-16T14:52:43;0.27;;;0.27;;
4186;SDS011;2107;52.306;10.484;2022-10-16T14:55:10;0.30;;;0.30;;
4186;SDS011;2107;52.306;10.484;2022-10-16T14:57:37;0.30;;;0.30;;
4186;SDS011;2107;52.306;10.484;2022-10-16T15:00:09;0.30;;;0.30;;
4186;SDS011;2107;52.306;10.484;2022-10-16T15:02:42;0.30;;;0.30;;
4186;SDS011;2107;52.306;10.484;2022-10-16T15:05:14;0.30;;;0.30;;
4186;SDS011;2107;52.306;10.484;2022-10-16T15:07:43;0.30;;;0.30;;
4186;SDS011;2107;52.306;10.484;2022-10-16T15:10:10;0.40;;;0.40;;
4186;SDS011;2107;52.306;10.484;2022-10-16T15:12:38;0.40;;;0.40;;
4186;SDS011;2107;52.306;10.484;2022-10-16T15:18:03;0.40;;;0.40;;
4186;SDS011;2107;52.306;10.484;2022-10-16T15:20:31;0.30;;;0.30;;
4186;SDS011;2107;52.306;10.484;2022-10-16T15:22:59;0.50;;;0.50;;
4186;SDS011;2107;52.306;10.484;2022-10-16T15:25:36;0.40;;;0.40;;
4186;SDS011;2107;52.306;10.484;2022-10-16T15:28:05;0.50;;;0.50;;
4186;SDS011;2107;52.306;10.484;2022-10-16T15:30:33;0.50;;;0.50;;
4186;SDS011;2107;52.306;10.484;2022-10-16T15:33:02;0.43;;;0.43;;